Weersoverzicht van METAR-stations binnen 150 km

EHRD - Rotterdam Airport
Afstand tot weerstation: ZO 28 km
Update: 28-01-2023 07:25
Zwaar bewolkt
Zwaar bewolkt
 Wind van ONO
Wind: ONO 9 km/h
Temperatuur: 2°C
Gevoelstemperatuur: -1°C
Dauwpunt: -1°C
Luchtvochtigheid: 81%
Luchtdruk: 1030 hPa
Bewolking: Zwaar bewolkt
Zicht: 10 km
Details Bewolking: Zwaar bewolkt 762 m
2023/01/28 06:25 EHRD 280625Z AUTO 07005KT 9999 OVC025 02/M01 Q1030 NOSIG
EHSC - Goeree Le Sea (Platform ter hoogte van Zeeland)
Afstand tot weerstation: WZW 36 km
Update: 28-01-2023 07:25

 Wind van O
Wind: O 11 km/h
Temperatuur: 4°C
Gevoelstemperatuur: 1°C
Dauwpunt: 1°C
Luchtvochtigheid: 81%
Luchtdruk: 1031 hPa
Zicht: 10 km
2023/01/28 06:25 EHSC 280625Z AUTO 10006KT 9999 ///////// 04/01 Q1031 W08/H7
 
EHAM - A'dam Schiphol
Afstand tot weerstation: ONO 51 km
Update: 28-01-2023 07:25
Zwaar bewolkt
Zwaar bewolkt
 Wind van N
Wind: N 7 km/h
Temperatuur: 3°C
Gevoelstemperatuur: 1°C
Dauwpunt: -1°C
Luchtvochtigheid: 75%
Luchtdruk: 1030 hPa
Bewolking: Zwaar bewolkt
Zicht: 10 km
Details Bewolking: Overwegend bewolkt 640 m
Zwaar bewolkt 762 m
2023/01/28 06:25 EHAM 280625Z 36004KT 320V060 9999 BKN021 OVC025 03/M01 Q1030 NOSIG
EHSA - Euro Platform (Ter hoogte van Zeeland)
Afstand tot weerstation: W 58 km
Update: 28-01-2023 07:25
Lichte motregen
Lichte motregen
 Wind van NNO
Wind: NNO 6 km/h
Temperatuur: 5°C
Dauwpunt: 1°C
Luchtvochtigheid: 76%
Luchtdruk: 1030 hPa
Overzicht: Lichte motregen
Zicht: 10 km
2023/01/28 06:25 EHSA 280625Z AUTO 03003KT 350V080 9999 -DZ ///////// 05/01 Q1030 W08/H9
 
EHPG - P11-B Sea (Platform ter hoogte van Zuid Holland)
Afstand tot weerstation: NW 60 km
Update: 28-01-2023 07:25
Enkele wolken
Enkele wolken
 Wind van Variabel
Wind: Variabel 9 km/h
Temperatuur: 5°C
Gevoelstemperatuur: 3°C
Dauwpunt: -2°C
Luchtvochtigheid: 61%
Luchtdruk: 1030 hPa
Bewolking: Enkele wolken
Zicht: 10 km
Details Bewolking: Enkele wolken 914 m
2023/01/28 06:25 EHPG 280625Z AUTO VRB05KT 9999 FEW030 05/M02 Q1030
EHWO - Vliegveld Woensdrecht
Afstand tot weerstation: ZZO 65 km
Update: 28-01-2023 07:25
Zwaar bewolkt
Zwaar bewolkt
 Wind van NO
Wind: NO 7 km/h
Temperatuur: 2°C
Gevoelstemperatuur: 0°C
Dauwpunt: -2°C
Luchtvochtigheid: 75%
Luchtdruk: 1030 hPa
Bewolking: Zwaar bewolkt
Zicht: 10 km
Details Bewolking: Zwaar bewolkt 518 m
2023/01/28 06:25 EHWO 280625Z AUTO 04004KT 300V090 9999 OVC017 02/M02 Q1030 WHT
 
EHGR - Vliegveld Gilze-Rijen
Afstand tot weerstation: ZO 79 km
Update: 28-01-2023 07:25
Zwaar bewolkt
Zwaar bewolkt
 Wind van N
Wind: N 6 km/h
Temperatuur: 2°C
Dauwpunt: -2°C
Luchtvochtigheid: 75%
Luchtdruk: 1030 hPa
Bewolking: Zwaar bewolkt
Zicht: 10 km
Details Bewolking: Zwaar bewolkt 579 m
2023/01/28 06:25 EHGR 280625Z AUTO 01003KT 340V050 9999 OVC019 02/M02 Q1030 WHT
EHQE - Hoorn-A Sea (Platform ter hoogte van Noord Holland)
Afstand tot weerstation: N 103 km
Update: 29-11-2022 17:25
NIET Aktueel

 Wind van Variabel
Wind: Variabel 0 km/h
2022/11/29 16:25 EHQE 291625Z AUTO /////KT //// // ////// ///// Q//// RE//
 
EHKD - Marinebasis De Kooy (Den Helder)
Afstand tot weerstation: NNO 114 km
Update: 28-01-2023 07:25
Zwaar bewolkt
Zwaar bewolkt
 Wind van Variabel
Wind: Variabel 2 km/h
Temperatuur: 1°C
Dauwpunt: -1°C
Luchtvochtigheid: 87%
Luchtdruk: 1030 hPa
Bewolking: Zwaar bewolkt
Zicht: 10 km
Details Bewolking: Zwaar bewolkt 884 m
2023/01/28 06:25 EHKD 280625Z AUTO VRB01KT 9999 OVC029 01/M01 Q1030 BLU NOSIG
EHEH - Vliegveld Eindhoven
Afstand tot weerstation: OZO 115 km
Update: 28-01-2023 07:25
Zwaar bewolkt
Zwaar bewolkt
 Wind van N
Wind: N 9 km/h
Temperatuur: 2°C
Gevoelstemperatuur: -1°C
Dauwpunt: -1°C
Luchtvochtigheid: 81%
Luchtdruk: 1029 hPa
Bewolking: Zwaar bewolkt
Zicht: 10 km
Details Bewolking: Zwaar bewolkt 701 m
2023/01/28 06:25 EHEH 280625Z AUTO 35005KT 250V030 9999 OVC023 02/M01 Q1029 WHT NOSIG
 
EHVK - Vliegveld Volkel
Afstand tot weerstation: OZO 124 km
Update: 28-01-2023 07:25
Zwaar bewolkt
Zwaar bewolkt
 Wind van NNO
Wind: NNO 6 km/h
Temperatuur: 2°C
Dauwpunt: -2°C
Luchtvochtigheid: 75%
Luchtdruk: 1029 hPa
Bewolking: Zwaar bewolkt
Zicht: 10 km
Details Bewolking: Zwaar bewolkt 640 m
2023/01/28 06:25 EHVK 280625Z AUTO 02003KT 9999 OVC021 02/M02 Q1029 WHT
EHDL - Vliegveld Deelen
Afstand tot weerstation: O 128 km
Update: 28-01-2023 07:25
Zwaar bewolkt
Zwaar bewolkt
 Wind van NO
Wind: NO 11 km/h
Temperatuur: 1°C
Gevoelstemperatuur: -2°C
Dauwpunt: -3°C
Luchtvochtigheid: 75%
Luchtdruk: 1029 hPa
Bewolking: Zwaar bewolkt
Zicht: 10 km
Details Bewolking: Zwaar bewolkt 518 m
2023/01/28 06:25 EHDL 280625Z AUTO 04006KT 330V070 9999 OVC017 01/M03 Q1029 WHT